Klaipėda, Lithuania

11:10 AM EET on lapkričio 20, 2017 (GMT +0200)
Liepaja International | | Change Station

Elev 13 ft 56.52 °N, 21.10 °E | Updated 20 minutes ago

Debesuotumas
Debesuotumas
39 °F
Feels Like 39 °F
N
2
Vėjas nepastovus Vėjas from nepastovus

Šiandien
High -- | Low -- °F
--% Chance of Precip.
Yesterday
High -- | Low -- °F
Precip. -- in
Slėgis 29.62 in
Matomumas 6.2 mylios
Debesys Few 2800 ft
Mažai debesuota 4400 ft
Debesuota 11000 ft
Rasos taškas 34 °F
Drėgmė 81%
Krituliai 0.00 in
Sniego dangos storis Not available.
8:20 AM 4:20 PM
Priešpilnis mėnulis, 3% visible
METAR EVLA 200850Z AUTO VRB02KT 9999 FEW028/// SCT044/// BKN110/// 04/01 Q1003
Slėgis 29.62 in
Matomumas 6.2 mylios
Debesys Few 2800 ft
Mažai debesuota 4400 ft
Debesuota 11000 ft
Rasos taškas 34 °F
Drėgmė 81%
Krituliai 0.00 in
Sniego dangos storis Not available.
8:20 AM 4:20 PM
Priešpilnis mėnulis, 3% visible
METAR EVLA 200850Z AUTO VRB02KT 9999 FEW028/// SCT044/// BKN110/// 04/01 Q1003

Get Severe Weather Alerts

Thanks for signing up!

Be on the lookout for a verification email in your inbox.

You'll start receiving the daily forecast at 6 AM.

×

10-Day Weather Forecast

×

Almanac

Astronomija

Nov. 20, 2017 Rise Set
Vietos laikas
Dienos šviesa
Jūrinė diena
Astronominė diena
Mėnulis
Matomos šviesos trukmė
Dienos ilgis
Tomorrow will be .
, % of the Moon is Illuminated

Šiandienos maksimumai

Country Highs Country Lows

Community

WunderPhotos

Category 6

Welcome to Category 6. This is the collective home for Weather Underground's featured writeups by Dr. Jeff Masters (right), Bob Henson (left), Chris Burt, and other regular contributors.

Nearby

Air Quality

  Air Quality AQ Index Pollutant
Not available.

Sniego danga

Station Depth Elevation

Earthquake Activity

Miestas Distance Mag. Time & Date
Minimum magnitude displayed is 2.5.

Coastal Water Temperatures

Vieta Temperatūra

Stations

Nearby Weather Stations

Station Location Temp Šaltas vėjas Rasos taškas Drėgmė Vėjas Precip. Elev Duomenys papildyti Type